createdAt,value
2022-12-02T00:33:18.394Z,24.68
2022-12-02T00:34:19.086Z,24.64
2022-12-02T00:35:19.844Z,24.65
2022-12-02T00:36:20.066Z,24.68
2022-12-02T00:37:19.097Z,24.67
2022-12-02T00:38:19.097Z,24.68
2022-12-02T00:39:19.089Z,24.68
2022-12-02T00:40:19.038Z,24.69
2022-12-02T00:41:19.058Z,24.69
2022-12-02T00:42:18.982Z,24.69
2022-12-02T00:43:21.060Z,24.68
2022-12-02T00:44:19.034Z,24.68
2022-12-02T00:45:19.032Z,24.68
2022-12-02T00:46:19.743Z,24.68
2022-12-02T00:47:18.949Z,24.68
2022-12-02T00:48:19.737Z,24.67
2022-12-02T00:49:19.035Z,24.67
2022-12-02T00:50:19.526Z,24.65
2022-12-02T00:51:18.939Z,24.67
2022-12-02T00:52:18.915Z,24.65
2022-12-02T00:53:19.726Z,24.65
2022-12-02T00:54:18.893Z,24.65
2022-12-02T00:55:18.891Z,24.67
2022-12-02T00:56:18.887Z,24.65
2022-12-02T00:57:18.821Z,24.65
2022-12-02T00:58:18.787Z,24.65
2022-12-02T00:59:18.874Z,24.65
2022-12-02T01:00:19.723Z,24.67
2022-12-02T01:01:18.907Z,24.65
2022-12-02T01:02:18.839Z,24.65
2022-12-02T01:03:18.809Z,24.65
2022-12-02T01:04:18.749Z,24.64
2022-12-02T01:05:18.724Z,24.62
2022-12-02T01:06:18.733Z,24.62
2022-12-02T01:07:18.751Z,24.61
2022-12-02T01:08:23.214Z,24.58
2022-12-02T01:09:18.739Z,24.57
2022-12-02T01:10:18.657Z,24.57
2022-12-02T01:11:18.752Z,24.55
2022-12-02T01:12:18.621Z,24.53
2022-12-02T01:13:19.588Z,24.52
2022-12-02T01:14:18.658Z,24.49
2022-12-02T01:15:18.620Z,24.47
2022-12-02T01:16:18.698Z,24.47
2022-12-02T01:17:19.578Z,24.47
2022-12-02T01:18:18.567Z,24.47
2022-12-02T01:19:18.710Z,24.45
2022-12-02T01:20:18.612Z,24.43
2022-12-02T01:21:19.330Z,24.40
2022-12-02T01:22:18.567Z,24.39
2022-12-02T01:23:18.546Z,24.37
2022-12-02T01:24:18.525Z,24.35
2022-12-02T01:25:18.872Z,24.32
2022-12-02T01:26:18.508Z,24.31
2022-12-02T01:27:18.530Z,24.28
2022-12-02T01:28:19.066Z,24.27
2022-12-02T01:29:18.510Z,24.24
2022-12-02T01:30:18.429Z,24.21
2022-12-02T01:31:18.623Z,24.20
2022-12-02T01:32:18.473Z,24.16
2022-12-02T01:33:18.457Z,24.18
2022-12-02T01:34:18.430Z,24.15
2022-12-02T01:35:18.436Z,24.15
2022-12-02T01:36:19.109Z,24.15
2022-12-02T01:37:39.420Z,24.15
2022-12-02T01:38:18.393Z,24.18
2022-12-02T01:39:19.252Z,24.15
2022-12-02T01:40:18.365Z,24.13
2022-12-02T01:41:19.257Z,24.10
2022-12-02T01:42:20.203Z,24.09
2022-12-02T01:43:18.377Z,24.08
2022-12-02T01:44:23.028Z,24.05
2022-12-02T01:45:18.321Z,24.05
2022-12-02T01:46:18.363Z,24.02
2022-12-02T01:47:18.276Z,24.03
2022-12-02T01:48:18.329Z,24.02
2022-12-02T01:49:18.287Z,24.00
2022-12-02T01:50:18.224Z,23.98
2022-12-02T01:51:18.182Z,23.97
2022-12-02T01:52:18.228Z,23.98
2022-12-02T01:53:18.443Z,23.95
2022-12-02T01:54:18.197Z,23.95
2022-12-02T01:55:25.308Z,23.94
2022-12-02T01:56:26.808Z,23.94
2022-12-02T01:57:25.511Z,23.93
2022-12-02T01:58:29.192Z,23.93
2022-12-02T01:59:18.103Z,23.93
2022-12-02T02:00:18.134Z,23.91
2022-12-02T02:01:18.230Z,23.93
2022-12-02T02:02:18.995Z,23.94
2022-12-02T02:03:18.104Z,23.97
2022-12-02T02:04:18.951Z,23.95
2022-12-02T02:05:18.063Z,23.95
2022-12-02T02:06:27.452Z,23.95
2022-12-02T02:07:32.214Z,23.97
2022-12-02T02:08:26.200Z,23.95
2022-12-02T02:09:36.113Z,23.95
2022-12-02T02:10:18.014Z,23.94
2022-12-02T02:11:18.752Z,23.93
2022-12-02T02:12:18.205Z,23.93
2022-12-02T02:13:17.947Z,23.93
2022-12-02T02:14:17.990Z,23.91
2022-12-02T02:15:18.879Z,23.91
2022-12-02T02:16:27.565Z,23.91
2022-12-02T02:17:18.055Z,23.91
2022-12-02T02:18:17.977Z,23.93
2022-12-02T02:30:39.179Z,23.87
2022-12-02T02:31:38.639Z,23.80
2022-12-02T02:32:37.682Z,23.80
2022-12-02T02:33:37.668Z,23.78
2022-12-02T02:34:37.649Z,23.79
2022-12-02T02:35:37.641Z,23.78
2022-12-02T02:36:37.647Z,23.78
2022-12-02T02:37:37.623Z,23.76
2022-12-02T02:38:37.580Z,23.76
2022-12-02T02:46:01.140Z,23.73
2022-12-02T02:47:00.094Z,23.70
2022-12-02T02:48:00.278Z,23.69
2022-12-02T02:49:00.072Z,23.69
2022-12-02T02:50:00.074Z,23.69
2022-12-02T02:51:00.012Z,23.69
2022-12-02T02:52:00.086Z,23.70
2022-12-02T02:52:59.980Z,23.69
2022-12-02T02:54:00.035Z,23.72
2022-12-02T02:55:00.004Z,23.70
2022-12-02T02:56:01.431Z,23.69
2022-12-02T02:56:59.939Z,23.69
2022-12-02T02:58:00.022Z,23.69
2022-12-02T02:58:59.949Z,23.66
2022-12-02T02:59:59.936Z,23.66
2022-12-02T03:00:59.988Z,23.66
2022-12-02T03:01:59.983Z,23.63
2022-12-02T03:03:01.209Z,23.63
2022-12-02T03:03:59.886Z,23.61
2022-12-02T03:04:59.888Z,23.61
2022-12-02T03:05:59.872Z,23.60
2022-12-02T03:06:59.848Z,23.58
2022-12-02T03:07:59.977Z,23.60
2022-12-02T03:08:59.873Z,23.58
2022-12-02T03:10:00.635Z,23.58
2022-12-02T03:10:59.806Z,23.58
2022-12-02T03:11:59.779Z,23.58
2022-12-02T03:12:59.784Z,23.55
2022-12-02T03:13:59.870Z,23.57
2022-12-02T03:15:00.050Z,23.58
2022-12-02T03:15:59.786Z,23.55
2022-12-02T03:16:59.854Z,23.55
2022-12-02T03:17:59.753Z,23.53
2022-12-02T03:18:59.716Z,23.51
2022-12-02T03:20:01.438Z,23.53
2022-12-02T03:20:59.663Z,23.53
2022-12-02T03:21:59.723Z,23.50
2022-12-02T03:23:00.427Z,23.48
2022-12-02T03:23:59.694Z,23.48
2022-12-02T03:25:00.186Z,23.47
2022-12-02T03:26:00.599Z,23.43
2022-12-02T03:26:59.689Z,23.42
2022-12-02T03:27:59.634Z,23.39
2022-12-02T03:28:59.568Z,23.38
2022-12-02T03:29:59.635Z,23.36
2022-12-02T03:31:04.397Z,23.36
2022-12-02T03:31:59.558Z,23.36
2022-12-02T03:33:01.549Z,23.36
2022-12-02T03:33:59.573Z,23.36
2022-12-02T03:34:59.524Z,23.33
2022-12-02T03:35:59.513Z,23.32
2022-12-02T03:36:59.544Z,23.33
2022-12-02T03:38:00.254Z,23.33
2022-12-02T03:39:01.457Z,23.32
2022-12-02T03:39:59.492Z,23.33
2022-12-02T03:40:59.458Z,23.33
2022-12-02T03:41:59.481Z,23.35
2022-12-02T03:43:00.322Z,23.33
2022-12-02T03:43:59.453Z,23.35
2022-12-02T03:45:00.038Z,23.32
2022-12-02T03:45:59.451Z,23.28
2022-12-02T03:46:59.390Z,23.27
2022-12-02T03:47:59.351Z,23.25
2022-12-02T03:49:00.401Z,23.28
2022-12-02T03:50:02.851Z,23.28
2022-12-02T03:51:00.119Z,23.28
2022-12-02T03:52:00.261Z,23.27
2022-12-02T03:52:59.362Z,23.25
2022-12-02T03:53:59.348Z,23.25
2022-12-02T03:54:59.386Z,23.27
2022-12-02T03:56:01.439Z,23.25
2022-12-02T03:57:01.995Z,23.32
2022-12-02T03:57:59.270Z,23.28
2022-12-02T03:58:59.261Z,23.25
2022-12-02T03:59:59.267Z,23.20
2022-12-02T04:00:59.257Z,23.19
2022-12-02T04:02:00.104Z,23.17
2022-12-02T04:02:59.256Z,23.16
2022-12-02T04:03:59.229Z,23.13
2022-12-02T04:04:59.181Z,23.10
2022-12-02T04:07:42.103Z,23.09
2022-12-02T04:08:43.868Z,23.09
2022-12-02T04:09:43.022Z,23.09
2022-12-02T04:10:43.903Z,23.09
2022-12-02T04:11:43.028Z,23.09
2022-12-02T04:12:43.540Z,23.07
2022-12-02T04:13:43.048Z,23.05
2022-12-02T04:14:44.911Z,23.01
2022-12-02T04:15:42.991Z,23.00
2022-12-02T04:16:42.874Z,22.97
2022-12-02T04:17:42.940Z,22.97
2022-12-02T04:18:45.647Z,22.95
2022-12-02T04:19:42.911Z,22.94
2022-12-02T04:20:43.161Z,22.91
2022-12-02T04:21:43.632Z,22.94
2022-12-02T04:22:42.906Z,22.92
2022-12-02T04:23:42.869Z,22.91
2022-12-02T04:24:43.763Z,22.92
2022-12-02T04:25:42.849Z,22.91
2022-12-02T04:26:45.988Z,22.91
2022-12-02T04:27:42.832Z,22.91
2022-12-02T04:32:41.956Z,22.97
2022-12-02T04:33:59.059Z,22.95
2022-12-02T04:34:42.947Z,22.92
2022-12-02T04:35:42.881Z,22.91
2022-12-02T04:36:42.886Z,22.88
2022-12-02T04:37:42.895Z,22.88
2022-12-02T04:38:42.909Z,22.88
2022-12-02T04:39:42.823Z,22.86
2022-12-02T04:40:42.821Z,22.85
2022-12-02T04:41:42.851Z,22.80
2022-12-02T04:42:42.855Z,22.80
2022-12-02T04:43:43.655Z,22.82
2022-12-02T04:44:46.817Z,22.77
2022-12-02T04:45:42.789Z,22.77
2022-12-02T04:46:42.861Z,22.79
2022-12-02T04:47:42.759Z,22.79
2022-12-02T04:48:43.634Z,22.77
2022-12-02T04:49:42.885Z,22.77
2022-12-02T04:50:42.791Z,22.76
2022-12-02T04:51:42.719Z,22.77
2022-12-02T04:52:42.744Z,22.76
2022-12-02T04:53:42.731Z,22.77
2022-12-02T04:54:42.715Z,22.77
2022-12-02T04:55:42.707Z,22.77
2022-12-02T04:56:42.637Z,22.77
2022-12-02T04:57:42.643Z,22.76
2022-12-02T05:00:33.899Z,22.75
2022-12-02T05:01:26.747Z,22.72
2022-12-02T05:02:27.155Z,22.70
2022-12-02T05:03:27.028Z,22.68
2022-12-02T05:04:26.029Z,22.70
2022-12-02T05:05:25.920Z,22.68
2022-12-02T05:06:25.883Z,22.65
2022-12-02T05:07:25.964Z,22.65
2022-12-02T05:08:27.242Z,22.64
2022-12-02T05:09:25.821Z,22.65
2022-12-02T05:10:25.888Z,22.62
2022-12-02T05:11:25.811Z,22.62
2022-12-02T05:12:25.846Z,22.61
2022-12-02T05:13:25.895Z,22.61
2022-12-02T05:14:25.863Z,22.61
2022-12-02T05:15:25.862Z,22.58
2022-12-02T05:16:25.890Z,22.58
2022-12-02T05:17:25.825Z,22.57
2022-12-02T05:18:25.800Z,22.57
2022-12-02T05:19:27.300Z,22.55
2022-12-02T05:21:42.426Z,22.57
2022-12-02T05:22:42.200Z,22.55
2022-12-02T05:24:02.550Z,22.55
2022-12-02T05:24:41.537Z,22.55
2022-12-02T05:25:41.495Z,22.54
2022-12-02T05:26:41.547Z,22.54
2022-12-02T05:27:41.493Z,22.55
2022-12-02T05:28:41.445Z,22.52
2022-12-02T05:29:41.465Z,22.52
2022-12-02T05:30:41.502Z,22.54
2022-12-02T05:31:42.188Z,22.54
2022-12-02T05:32:41.456Z,22.52
2022-12-02T05:33:42.299Z,22.54
2022-12-02T05:34:42.103Z,22.55
2022-12-02T05:35:41.402Z,22.51
2022-12-02T05:36:41.403Z,22.43
2022-12-02T05:37:42.273Z,22.40
2022-12-02T05:38:41.387Z,22.37
2022-12-02T05:39:42.046Z,22.36
2022-12-02T05:40:41.328Z,22.33
2022-12-02T05:41:41.289Z,22.31
2022-12-02T05:42:41.334Z,22.30
2022-12-02T05:43:41.307Z,22.28
2022-12-02T05:44:41.247Z,22.27
2022-12-02T05:45:41.260Z,22.27
2022-12-02T05:46:41.323Z,22.27
2022-12-02T05:47:41.220Z,22.25
2022-12-02T05:48:42.014Z,22.24
2022-12-02T05:49:43.417Z,22.25
2022-12-02T05:50:41.188Z,22.25
2022-12-02T05:51:41.959Z,22.24
2022-12-02T05:52:41.184Z,22.24
2022-12-02T05:53:41.147Z,22.25
2022-12-02T05:54:41.216Z,22.24
2022-12-02T05:55:41.196Z,22.24
2022-12-02T05:56:41.121Z,22.24
2022-12-02T05:57:41.118Z,22.22
2022-12-02T05:58:41.103Z,22.20
2022-12-02T05:59:41.133Z,22.21
2022-12-02T06:00:41.145Z,22.18
2022-12-02T06:01:41.120Z,22.15
2022-12-02T06:02:41.524Z,22.15
2022-12-02T06:03:41.150Z,22.15
2022-12-02T06:04:41.057Z,22.14
2022-12-02T06:05:41.075Z,22.15
2022-12-02T06:06:41.071Z,22.15
2022-12-02T06:07:41.024Z,22.14
2022-12-02T06:08:40.982Z,22.12
2022-12-02T06:09:40.999Z,22.10
2022-12-02T06:10:41.026Z,22.10
2022-12-02T06:11:41.006Z,22.10
2022-12-02T06:12:41.010Z,22.10
2022-12-02T06:13:41.628Z,22.10
2022-12-02T06:16:14.334Z,22.12
2022-12-02T06:17:15.953Z,22.09
2022-12-02T06:18:15.287Z,22.09
2022-12-02T06:19:16.101Z,22.07
2022-12-02T06:20:15.271Z,22.09
2022-12-02T06:21:15.279Z,22.07
2022-12-02T06:22:15.185Z,22.06
2022-12-02T06:23:15.241Z,22.07
2022-12-02T06:24:15.220Z,22.06
2022-12-02T06:25:16.238Z,22.06
2022-12-02T06:26:15.208Z,22.05
2022-12-02T06:27:15.181Z,22.06
2022-12-02T06:28:15.177Z,22.06
2022-12-02T06:29:15.200Z,22.06
2022-12-02T06:30:15.168Z,22.07
2022-12-02T06:31:15.245Z,22.06
2022-12-02T06:32:15.226Z,22.05
2022-12-02T06:33:19.550Z,22.03
2022-12-02T06:34:15.105Z,22.03
2022-12-02T06:35:15.171Z,22.03
2022-12-02T06:36:15.053Z,22.03
2022-12-02T06:37:15.083Z,22.03
2022-12-02T06:38:15.671Z,22.03
2022-12-02T06:39:15.060Z,22.02
2022-12-02T06:40:30.490Z,22.03
2022-12-02T06:41:15.103Z,22.02
2022-12-02T06:42:15.053Z,22.02
2022-12-02T06:43:15.013Z,22.00
2022-12-02T06:44:15.039Z,22.00
2022-12-02T06:45:14.993Z,21.99
2022-12-02T06:46:15.037Z,21.98
2022-12-02T06:47:14.971Z,21.98
2022-12-02T06:48:15.705Z,21.96
2022-12-02T06:49:14.963Z,21.94
2022-12-02T06:50:14.926Z,21.94
2022-12-02T06:51:15.832Z,21.96
2022-12-02T06:52:14.937Z,21.96
2022-12-02T06:53:15.845Z,21.94
2022-12-02T06:54:15.706Z,21.92
2022-12-02T06:55:15.616Z,21.91
2022-12-02T07:05:25.352Z,21.88
2022-12-02T07:05:42.108Z,21.84
2022-12-02T07:06:42.163Z,21.86
2022-12-02T07:07:42.176Z,21.82
2022-12-02T07:08:42.165Z,21.83
2022-12-02T07:10:07.281Z,21.79
2022-12-02T07:12:18.499Z,21.83
2022-12-02T07:19:26.858Z,21.77
2022-12-02T07:20:06.791Z,21.77
2022-12-02T07:21:06.742Z,21.74
2022-12-02T07:22:07.439Z,21.74
2022-12-02T07:23:06.751Z,21.74
2022-12-02T07:24:39.556Z,21.74
2022-12-02T07:25:09.027Z,21.72
2022-12-02T07:26:08.585Z,21.72
2022-12-02T07:27:06.694Z,21.71
2022-12-02T07:28:06.710Z,21.68
2022-12-02T07:29:15.887Z,21.68
2022-12-02T07:30:08.490Z,21.68
2022-12-02T07:31:06.730Z,21.71
2022-12-02T07:32:06.595Z,21.69
2022-12-02T07:33:06.644Z,21.71
2022-12-02T07:34:07.287Z,21.69
2022-12-02T07:35:07.607Z,21.69
2022-12-02T08:02:37.248Z,21.49
2022-12-02T08:03:36.661Z,21.46
2022-12-02T08:04:36.682Z,21.44
2022-12-02T08:05:37.733Z,21.44
2022-12-02T08:06:39.733Z,21.44
2022-12-02T08:07:36.644Z,21.44
2022-12-02T08:08:36.514Z,21.44
2022-12-02T08:09:36.563Z,21.43
2022-12-02T08:10:37.270Z,21.42
2022-12-02T08:11:36.545Z,21.38
2022-12-02T08:12:36.498Z,21.42
2022-12-02T08:13:36.773Z,21.42
2022-12-02T08:14:36.439Z,21.38
2022-12-02T08:15:36.487Z,21.38
2022-12-02T08:16:36.506Z,21.38
2022-12-02T08:17:39.612Z,21.37
2022-12-02T08:18:36.442Z,21.37
2022-12-02T08:19:36.469Z,21.37
2022-12-02T08:20:36.360Z,21.38
2022-12-02T08:21:36.406Z,21.40
2022-12-02T08:22:36.371Z,21.42
2022-12-02T08:23:36.351Z,21.44
2022-12-02T08:24:36.346Z,21.47
2022-12-02T08:25:36.381Z,21.49
2022-12-02T08:26:36.305Z,21.52
2022-12-02T08:27:39.832Z,21.53
2022-12-02T08:28:36.271Z,21.54
2022-12-02T08:29:36.389Z,21.58
2022-12-02T08:30:36.327Z,21.61
2022-12-02T08:31:36.973Z,21.64
2022-12-02T08:32:36.266Z,21.67
2022-12-02T08:33:36.232Z,21.69
2022-12-02T08:34:36.257Z,21.71
2022-12-02T08:35:37.103Z,21.68
2022-12-02T08:36:36.184Z,21.64
2022-12-02T08:37:36.930Z,21.62
2022-12-02T08:38:36.204Z,21.59
2022-12-02T08:39:36.227Z,21.56
2022-12-02T08:40:36.221Z,21.54
2022-12-02T08:41:36.153Z,21.52
2022-12-02T08:42:36.852Z,21.50
2022-12-02T08:43:36.194Z,21.53
2022-12-02T08:44:36.134Z,21.53
2022-12-02T08:45:36.149Z,21.54
2022-12-02T08:46:36.132Z,21.58
2022-12-02T08:47:36.120Z,21.58
2022-12-02T08:48:36.077Z,21.59
2022-12-02T08:49:36.110Z,21.64
2022-12-02T08:50:36.040Z,21.68
2022-12-02T08:51:36.079Z,21.71
2022-12-02T08:52:36.001Z,21.72
2022-12-02T08:53:36.033Z,21.75
2022-12-02T08:54:36.020Z,21.75
2022-12-02T08:55:37.805Z,21.79
2022-12-02T08:56:35.986Z,21.83
2022-12-02T08:57:35.964Z,21.88
2022-12-02T08:58:35.947Z,21.88
2022-12-02T08:59:35.978Z,21.94
2022-12-02T09:00:39.221Z,22.00
2022-12-02T09:01:36.023Z,22.02
2022-12-02T09:02:35.974Z,22.03
2022-12-02T09:03:37.872Z,22.05
2022-12-02T09:04:36.638Z,22.03
2022-12-02T09:05:35.933Z,22.02
2022-12-02T09:06:36.576Z,22.02
2022-12-02T09:07:35.947Z,22.00
2022-12-02T09:08:35.917Z,21.99
2022-12-02T09:09:37.710Z,21.96
2022-12-02T09:10:35.906Z,21.91
2022-12-02T09:11:35.852Z,21.80
2022-12-02T09:12:35.803Z,21.74
2022-12-02T09:13:35.872Z,21.77
2022-12-02T09:14:35.829Z,21.80
2022-12-02T09:15:35.836Z,21.82
2022-12-02T09:16:35.761Z,21.83
2022-12-02T09:17:35.750Z,21.80
2022-12-02T09:18:35.731Z,21.82
2022-12-02T09:19:35.764Z,21.86
2022-12-02T09:20:35.700Z,21.86
2022-12-02T09:21:35.692Z,21.86
2022-12-02T09:22:36.868Z,21.84
2022-12-02T09:23:35.698Z,21.84
2022-12-02T09:24:35.715Z,21.83
2022-12-02T09:25:35.647Z,21.83
2022-12-02T09:26:35.637Z,21.84
2022-12-02T09:27:35.662Z,21.90
2022-12-02T09:28:35.645Z,21.86
2022-12-02T09:29:35.629Z,21.88
2022-12-02T09:30:35.613Z,21.86
2022-12-02T09:31:35.630Z,21.86
2022-12-02T09:32:35.538Z,21.83
2022-12-02T09:33:35.548Z,21.88
2022-12-02T09:34:35.524Z,21.92
2022-12-02T09:35:35.577Z,21.99
2022-12-02T09:36:35.556Z,22.05
2022-12-02T09:37:35.530Z,22.14
2022-12-02T09:38:35.510Z,22.20
2022-12-02T09:39:38.705Z,22.24
2022-12-02T09:40:35.499Z,22.31
2022-12-02T09:41:35.504Z,22.27
2022-12-02T09:42:36.373Z,22.25
2022-12-02T09:43:35.489Z,22.27
2022-12-02T09:44:36.385Z,22.27
2022-12-02T09:45:35.422Z,22.30
2022-12-02T09:46:36.225Z,22.36
2022-12-02T09:47:35.405Z,22.45
2022-12-02T09:48:35.417Z,22.54
2022-12-02T09:49:36.267Z,22.62
2022-12-02T09:50:36.560Z,22.72
2022-12-02T09:51:35.318Z,22.76
2022-12-02T09:52:35.393Z,22.79
2022-12-02T09:53:45.611Z,22.85
2022-12-02T09:54:47.048Z,22.91
2022-12-02T09:55:43.044Z,22.94
2022-12-02T09:56:44.051Z,22.95
2022-12-02T09:57:40.383Z,23.01
2022-12-02T09:58:35.900Z,23.10
2022-12-02T09:59:35.956Z,23.15
2022-12-02T10:00:41.459Z,23.19
2022-12-02T10:01:35.954Z,23.27
2022-12-02T10:02:45.365Z,23.36
2022-12-02T10:03:35.313Z,23.47
2022-12-02T10:04:35.929Z,23.50
2022-12-02T10:05:35.161Z,23.32
2022-12-02T10:06:35.223Z,23.19
2022-12-02T10:07:35.223Z,22.97
2022-12-02T10:08:35.208Z,22.95
2022-12-02T10:09:35.112Z,22.98
2022-12-02T10:10:35.177Z,23.00
2022-12-02T10:11:35.103Z,22.91
2022-12-02T10:12:35.162Z,22.94
2022-12-02T10:13:35.113Z,22.95
2022-12-02T10:14:35.111Z,23.00
2022-12-02T10:15:35.098Z,23.04
2022-12-02T10:16:35.162Z,23.07
2022-12-02T10:17:35.056Z,23.09
2022-12-02T10:18:35.119Z,23.12
2022-12-02T10:19:35.037Z,23.13
2022-12-02T10:20:35.036Z,23.19
2022-12-02T10:21:34.982Z,23.19
2022-12-02T10:22:35.976Z,23.22
2022-12-02T10:23:39.409Z,23.28
2022-12-02T10:24:35.952Z,23.35
2022-12-02T10:25:35.822Z,23.33
2022-12-02T10:26:34.955Z,23.32
2022-12-02T10:27:35.904Z,23.38
2022-12-02T10:28:34.990Z,23.50
2022-12-02T10:29:34.876Z,23.66
2022-12-02T10:30:34.974Z,23.78
2022-12-02T10:31:36.000Z,23.93
2022-12-02T10:32:34.895Z,24.06
2022-12-02T10:33:34.833Z,24.09
2022-12-02T10:34:34.878Z,24.03
2022-12-02T10:35:35.636Z,23.97
2022-12-02T10:36:35.422Z,23.93
2022-12-02T10:37:34.811Z,23.91
2022-12-02T10:38:34.794Z,23.90
2022-12-02T10:39:38.227Z,23.88
2022-12-02T10:40:35.551Z,23.87
2022-12-02T10:41:34.794Z,23.88
2022-12-02T10:42:34.818Z,23.88
2022-12-02T10:43:35.981Z,24.02
2022-12-02T10:44:34.785Z,24.12
2022-12-02T10:45:34.792Z,24.10
2022-12-02T10:46:36.432Z,24.03
2022-12-02T10:47:34.734Z,23.94
2022-12-02T10:48:35.461Z,24.02
2022-12-02T10:49:35.636Z,24.08
2022-12-02T10:50:35.808Z,24.08
2022-12-02T10:51:34.777Z,24.02
2022-12-02T10:52:34.734Z,23.94
2022-12-02T10:53:34.641Z,23.98
2022-12-02T10:54:41.399Z,24.09
2022-12-02T10:55:34.652Z,24.20
2022-12-02T10:56:34.655Z,24.34
2022-12-02T10:57:35.779Z,24.43
2022-12-02T10:58:34.642Z,24.53
2022-12-02T10:59:34.610Z,24.53
2022-12-02T11:00:37.341Z,24.60
2022-12-02T11:01:34.719Z,24.69
2022-12-02T11:02:34.636Z,24.83
2022-12-02T11:03:34.544Z,24.87
2022-12-02T11:04:37.345Z,24.98
2022-12-02T11:05:34.533Z,25.05
2022-12-02T11:06:34.533Z,25.05
2022-12-02T11:07:36.654Z,25.08
2022-12-02T11:08:34.440Z,25.14
2022-12-02T11:09:41.857Z,25.21
2022-12-02T11:10:34.522Z,25.28
2022-12-02T11:11:39.796Z,25.32
2022-12-02T11:12:34.439Z,25.18
2022-12-02T11:13:34.436Z,25.10
2022-12-02T11:14:34.483Z,25.18
2022-12-02T11:15:34.425Z,25.27
2022-12-02T11:16:34.500Z,25.32
2022-12-02T11:17:34.397Z,25.43
2022-12-02T11:18:34.987Z,25.57
2022-12-02T11:19:34.919Z,25.67
2022-12-02T11:20:34.381Z,25.76
2022-12-02T11:21:35.750Z,25.79
2022-12-02T11:22:34.362Z,25.83
2022-12-02T11:23:34.312Z,25.80
2022-12-02T11:24:34.344Z,25.62
2022-12-02T11:25:41.024Z,25.51
2022-12-02T11:26:34.290Z,25.58
2022-12-02T11:27:34.228Z,25.70
2022-12-02T11:28:34.257Z,25.79
2022-12-02T11:29:35.672Z,25.85
2022-12-02T11:30:34.451Z,25.94
2022-12-02T11:31:34.246Z,25.88
2022-12-02T11:32:34.192Z,25.82
2022-12-02T11:33:34.159Z,25.69
2022-12-02T11:34:54.050Z,25.73
2022-12-02T11:35:36.000Z,25.83
2022-12-02T11:36:36.068Z,25.95
2022-12-02T11:37:34.184Z,26.05
2022-12-02T11:38:34.123Z,26.05
2022-12-02T11:39:34.112Z,26.07
2022-12-02T11:40:34.154Z,26.15
2022-12-02T11:41:34.818Z,26.06
2022-12-02T11:42:35.035Z,26.01
2022-12-02T11:43:34.063Z,26.12
2022-12-02T11:45:34.007Z,26.45
2022-12-02T11:46:35.571Z,26.55
2022-12-02T11:47:38.220Z,26.43
2022-12-02T11:48:34.808Z,26.28
2022-12-02T11:49:34.865Z,26.15
2022-12-02T11:50:42.147Z,26.07
2022-12-02T11:51:42.938Z,26.15
2022-12-02T11:52:49.815Z,26.29
2022-12-02T11:53:42.981Z,26.45
2022-12-02T11:54:35.747Z,26.57
2022-12-02T11:56:49.348Z,26.60
2022-12-02T11:57:50.303Z,26.70
2022-12-02T11:58:50.288Z,26.80
2022-12-02T11:59:52.583Z,26.91
2022-12-02T12:00:50.297Z,26.99
2022-12-02T12:01:54.847Z,27.06
2022-12-02T12:02:52.238Z,27.03
2022-12-02T12:03:50.327Z,27.00
2022-12-02T12:04:50.611Z,26.97
2022-12-02T12:05:50.938Z,26.99
2022-12-02T12:06:50.463Z,26.99
2022-12-02T12:07:51.379Z,26.99
2022-12-02T12:08:50.175Z,27.03
2022-12-02T12:09:50.152Z,26.94
2022-12-02T12:10:50.170Z,26.92
2022-12-02T12:11:50.157Z,27.06
2022-12-02T12:12:51.329Z,27.19
2022-12-02T12:13:50.104Z,27.18
2022-12-02T12:14:52.433Z,27.17
2022-12-02T12:15:50.920Z,27.22
2022-12-02T12:16:50.131Z,27.32
2022-12-02T12:18:00.483Z,27.41
2022-12-02T12:18:50.068Z,27.51
2022-12-02T12:19:50.033Z,27.50
2022-12-02T12:20:51.197Z,27.40
2022-12-02T12:21:50.013Z,27.27
2022-12-02T12:22:50.033Z,27.22
2022-12-02T12:23:56.634Z,27.27
2022-12-02T12:25:00.613Z,27.37
2022-12-02T12:25:49.931Z,27.47
2022-12-02T12:26:50.611Z,27.55
2022-12-02T12:27:57.059Z,27.60
2022-12-02T12:28:57.071Z,27.67
2022-12-02T12:29:50.806Z,27.69
2022-12-02T12:30:57.521Z,27.70
2022-12-02T12:31:49.871Z,27.54
2022-12-02T12:32:55.832Z,27.43
2022-12-02T12:33:49.847Z,27.25
2022-12-02T12:34:50.333Z,27.21
2022-12-02T12:35:49.802Z,27.29
2022-12-02T12:36:49.864Z,27.34
2022-12-02T12:37:58.018Z,27.27
2022-12-02T12:38:49.796Z,27.29
2022-12-02T12:39:57.555Z,27.36
2022-12-02T12:40:49.819Z,27.47
2022-12-02T12:42:05.199Z,27.67
2022-12-02T12:42:51.588Z,27.85
2022-12-02T12:43:50.644Z,27.88
2022-12-02T12:44:50.050Z,27.90
2022-12-02T12:45:52.147Z,27.94
2022-12-02T12:46:49.796Z,27.96
2022-12-02T12:47:50.756Z,27.97
2022-12-02T12:48:49.735Z,27.93
2022-12-02T12:49:50.521Z,27.99
2022-12-02T12:50:49.724Z,27.96
2022-12-02T12:51:49.853Z,27.99
2022-12-02T12:52:49.641Z,28.06
2022-12-02T12:53:49.663Z,28.19
2022-12-02T12:54:51.301Z,28.30
2022-12-02T12:55:49.630Z,28.37
2022-12-02T12:56:49.588Z,28.48
2022-12-02T12:57:49.606Z,28.56
2022-12-02T12:58:49.688Z,28.55
2022-12-02T12:59:50.041Z,28.54
2022-12-02T13:00:49.607Z,28.51
2022-12-02T13:01:49.699Z,28.44
2022-12-02T13:02:49.620Z,28.40
2022-12-02T13:03:49.566Z,28.39
2022-12-02T13:04:50.937Z,28.44
2022-12-02T13:05:49.523Z,28.43
2022-12-02T13:06:49.537Z,28.48
2022-12-02T13:07:50.935Z,28.37
2022-12-02T13:08:49.457Z,28.24
2022-12-02T13:09:49.726Z,28.21
2022-12-02T13:10:49.487Z,28.29
2022-12-02T13:11:50.164Z,28.31
2022-12-02T13:12:50.604Z,28.43
2022-12-02T13:13:50.229Z,28.48
2022-12-02T13:14:50.677Z,28.41
2022-12-02T13:15:50.489Z,28.49
2022-12-02T13:16:49.458Z,28.54
2022-12-02T13:17:50.142Z,28.58
2022-12-02T13:18:49.396Z,28.52
2022-12-02T13:19:49.331Z,28.56
2022-12-02T13:20:49.345Z,28.59
2022-12-02T13:21:50.497Z,28.61
2022-12-02T13:22:49.283Z,28.70
2022-12-02T13:23:49.313Z,28.80
2022-12-02T13:24:49.329Z,28.83
2022-12-02T13:25:49.266Z,28.90
2022-12-02T13:26:49.307Z,28.81
2022-12-02T13:27:51.086Z,28.78
2022-12-02T13:28:50.065Z,28.78
2022-12-02T13:29:49.523Z,28.77
2022-12-02T13:30:50.172Z,28.83
2022-12-02T13:31:49.249Z,28.92
2022-12-02T13:32:49.190Z,29.04
2022-12-02T13:33:49.273Z,29.04
2022-12-02T13:34:50.940Z,28.90
2022-12-02T13:35:49.186Z,29.00
2022-12-02T13:36:49.142Z,29.06
2022-12-02T13:37:49.156Z,29.11
2022-12-02T13:38:49.164Z,29.11
2022-12-02T13:39:49.339Z,29.16
2022-12-02T13:40:52.137Z,29.26
2022-12-02T13:41:49.101Z,29.39
2022-12-02T13:42:49.136Z,29.52
2022-12-02T13:43:49.080Z,29.63
2022-12-02T13:44:49.317Z,29.70
2022-12-02T13:45:49.289Z,29.79
2022-12-02T13:46:49.276Z,29.85
2022-12-02T13:47:49.037Z,29.89
2022-12-02T13:48:51.504Z,29.92
2022-12-02T13:49:49.240Z,29.83
2022-12-02T13:50:49.063Z,29.61
2022-12-02T13:51:49.088Z,29.42
2022-12-02T13:52:49.059Z,29.31
2022-12-02T13:53:52.010Z,29.26
2022-12-02T13:54:49.821Z,29.30
2022-12-02T13:55:48.992Z,29.42
2022-12-02T13:56:49.006Z,29.46
2022-12-02T13:57:51.281Z,29.58
2022-12-02T13:58:48.927Z,29.67
2022-12-02T13:59:48.891Z,29.67
2022-12-02T14:00:49.591Z,29.64
2022-12-02T14:01:48.988Z,29.60
2022-12-02T14:02:48.905Z,29.58
2022-12-02T14:03:48.974Z,29.58
2022-12-02T14:04:49.070Z,29.67
2022-12-02T14:05:48.924Z,29.70
2022-12-02T14:06:49.642Z,29.76
2022-12-02T14:07:48.908Z,29.71
2022-12-02T14:08:48.810Z,29.74
2022-12-02T14:09:48.857Z,29.73
2022-12-02T14:10:49.566Z,29.78
2022-12-02T14:11:50.015Z,29.79
2022-12-02T14:12:48.803Z,29.79
2022-12-02T14:13:49.085Z,29.68
2022-12-02T14:14:48.800Z,29.67
2022-12-02T14:15:48.885Z,29.67
2022-12-02T14:16:48.783Z,29.70
2022-12-02T14:17:48.666Z,29.78
2022-12-02T14:18:53.901Z,29.85
2022-12-02T14:19:48.808Z,29.94
2022-12-02T14:20:48.713Z,29.97
2022-12-02T14:21:48.640Z,29.85
2022-12-02T14:22:48.725Z,29.63
2022-12-02T14:23:48.642Z,29.63
2022-12-02T14:24:49.427Z,29.64
2022-12-02T14:25:48.611Z,29.64
2022-12-02T14:26:49.358Z,29.64
2022-12-02T14:27:48.593Z,29.67
2022-12-02T14:28:48.642Z,29.57
2022-12-02T14:29:48.553Z,29.49
2022-12-02T14:30:48.584Z,29.58
2022-12-02T14:31:48.634Z,29.76
2022-12-02T14:32:48.569Z,29.87
2022-12-02T14:34:10.840Z,29.98
2022-12-02T14:34:48.610Z,30.05
2022-12-02T14:35:48.515Z,30.15
2022-12-02T14:36:48.495Z,30.27
2022-12-02T14:37:48.433Z,30.39